createdAt,value
2023-02-01T00:01:30.276Z,2.90
2023-02-01T00:03:56.923Z,3.29
2023-02-01T00:06:23.658Z,3.14
2023-02-01T00:08:50.319Z,3.10
2023-02-01T00:11:16.991Z,3.35
2023-02-01T00:13:43.657Z,3.37
2023-02-01T00:16:10.308Z,3.45
2023-02-01T00:18:36.939Z,3.35
2023-02-01T00:21:03.611Z,3.53
2023-02-01T00:23:30.245Z,3.58
2023-02-01T00:25:56.867Z,3.38
2023-02-01T00:28:23.559Z,2.84
2023-02-01T00:30:50.211Z,2.33
2023-02-01T00:33:16.820Z,2.75
2023-02-01T00:35:43.481Z,3.01
2023-02-01T00:38:10.080Z,3.20
2023-02-01T00:40:36.720Z,3.15
2023-02-01T00:43:03.385Z,2.81
2023-02-01T00:45:30.073Z,2.84
2023-02-01T00:47:56.765Z,3.31
2023-02-01T00:50:23.613Z,2.87
2023-02-01T00:52:50.444Z,3.12
2023-02-01T00:55:17.122Z,2.97
2023-02-01T00:57:43.755Z,3.02
2023-02-01T01:00:10.454Z,2.13
2023-02-01T01:02:37.081Z,2.65
2023-02-01T01:05:03.731Z,3.05
2023-02-01T01:07:30.358Z,2.88
2023-02-01T01:09:57.005Z,2.57
2023-02-01T01:12:23.635Z,3.19
2023-02-01T01:14:50.292Z,3.33
2023-02-01T01:17:16.920Z,3.37
2023-02-01T01:19:43.556Z,3.54
2023-02-01T01:22:10.240Z,3.11
2023-02-01T01:24:36.923Z,3.18
2023-02-01T01:27:03.593Z,3.00
2023-02-01T01:29:30.216Z,2.69
2023-02-01T01:31:56.921Z,3.21
2023-02-01T01:34:23.568Z,2.70
2023-02-01T01:36:50.251Z,2.62
2023-02-01T01:39:16.925Z,3.08
2023-02-01T01:41:43.583Z,2.78
2023-02-01T01:44:10.268Z,2.99
2023-02-01T01:46:36.976Z,3.21
2023-02-01T01:49:03.651Z,3.36
2023-02-01T01:51:30.278Z,3.61
2023-02-01T01:53:56.970Z,3.02
2023-02-01T01:56:23.646Z,2.97
2023-02-01T01:58:50.285Z,3.09
2023-02-01T02:01:16.942Z,2.98
2023-02-01T02:03:43.625Z,3.10
2023-02-01T02:06:10.309Z,2.97
2023-02-01T02:08:36.936Z,3.30
2023-02-01T02:11:03.575Z,3.45
2023-02-01T02:13:30.257Z,2.86
2023-02-01T02:15:56.978Z,2.94
2023-02-01T02:18:25.567Z,3.08
2023-02-01T02:20:52.217Z,3.17
2023-02-01T02:23:18.888Z,3.43
2023-02-01T02:25:45.496Z,3.28
2023-02-01T02:28:12.123Z,3.22
2023-02-01T02:30:38.819Z,3.40
2023-02-01T02:33:05.503Z,3.58
2023-02-01T02:35:32.157Z,3.60
2023-02-01T02:37:58.784Z,3.33
2023-02-01T02:40:25.441Z,3.34
2023-02-01T02:42:52.108Z,3.08
2023-02-01T02:45:18.725Z,3.17
2023-02-01T02:47:45.396Z,3.01
2023-02-01T02:50:12.034Z,2.53
2023-02-01T02:52:38.622Z,2.99
2023-02-01T02:55:05.298Z,2.82
2023-02-01T02:57:31.944Z,2.88
2023-02-01T02:59:58.634Z,2.93
2023-02-01T03:02:25.340Z,2.06
2023-02-01T03:04:51.997Z,2.08
2023-02-01T03:07:18.662Z,2.23
2023-02-01T03:09:45.310Z,2.64
2023-02-01T03:12:11.998Z,2.87
2023-02-01T03:14:38.699Z,2.52
2023-02-01T03:17:05.388Z,2.01
2023-02-01T03:19:31.984Z,2.42
2023-02-01T03:24:25.079Z,2.23
2023-02-01T03:26:52.193Z,2.12
2023-02-01T03:29:18.859Z,1.88
2023-02-01T03:31:45.549Z,1.80
2023-02-01T03:34:12.177Z,1.94
2023-02-01T03:36:38.793Z,2.08
2023-02-01T03:39:05.403Z,2.02
2023-02-01T03:41:32.025Z,2.53
2023-02-01T03:43:58.686Z,2.63
2023-02-01T03:46:25.375Z,2.84
2023-02-01T03:48:52.015Z,2.33
2023-02-01T03:51:18.608Z,1.97
2023-02-01T03:53:45.215Z,1.93
2023-02-01T03:56:11.864Z,2.00
2023-02-01T03:58:38.560Z,2.32
2023-02-01T04:01:05.262Z,2.44
2023-02-01T04:03:31.946Z,2.78
2023-02-01T04:05:58.571Z,2.27
2023-02-01T04:08:25.226Z,2.42
2023-02-01T04:10:51.889Z,2.49
2023-02-01T04:13:18.552Z,2.52
2023-02-01T04:15:45.191Z,2.67
2023-02-01T04:18:11.829Z,2.58
2023-02-01T04:20:38.495Z,2.43
2023-02-01T04:23:05.186Z,2.65
2023-02-01T04:25:31.827Z,2.46
2023-02-01T04:27:58.497Z,1.99
2023-02-01T04:30:25.556Z,2.42
2023-02-01T04:32:52.342Z,2.67
2023-02-01T04:35:19.046Z,2.50
2023-02-01T04:37:45.693Z,1.83
2023-02-01T04:40:12.356Z,2.02
2023-02-01T04:42:39.045Z,2.18
2023-02-01T04:45:05.647Z,2.13
2023-02-01T04:47:32.281Z,2.34
2023-02-01T04:49:58.907Z,2.26
2023-02-01T04:52:25.504Z,1.92
2023-02-01T04:54:52.148Z,2.21
2023-02-01T04:57:18.784Z,1.91
2023-02-01T04:59:45.452Z,1.96
2023-02-01T05:02:12.109Z,2.22
2023-02-01T05:04:38.787Z,2.14
2023-02-01T05:07:05.433Z,2.32
2023-02-01T05:09:32.089Z,2.40
2023-02-01T05:11:58.822Z,2.09
2023-02-01T05:14:25.483Z,2.18
2023-02-01T05:16:52.143Z,2.26
2023-02-01T05:19:18.770Z,1.99
2023-02-01T05:21:45.421Z,2.27
2023-02-01T05:24:12.070Z,2.11
2023-02-01T05:26:38.833Z,2.32
2023-02-01T05:29:05.643Z,2.27
2023-02-01T05:31:32.439Z,2.36
2023-02-01T05:33:59.073Z,2.46
2023-02-01T05:36:25.669Z,2.23
2023-02-01T05:38:52.335Z,2.47
2023-02-01T05:41:18.977Z,2.32
2023-02-01T05:43:45.613Z,2.32
2023-02-01T05:46:12.278Z,2.40
2023-02-01T05:48:38.997Z,2.47
2023-02-01T05:51:05.592Z,2.13
2023-02-01T05:53:32.253Z,2.30
2023-02-01T05:55:58.846Z,2.41
2023-02-01T05:58:25.471Z,2.21
2023-02-01T06:00:52.130Z,2.23
2023-02-01T06:03:18.778Z,2.12
2023-02-01T06:05:45.420Z,2.29
2023-02-01T06:08:12.023Z,2.02
2023-02-01T06:10:38.656Z,2.29
2023-02-01T06:13:05.319Z,2.08
2023-02-01T06:15:31.958Z,2.24
2023-02-01T06:17:58.564Z,2.23
2023-02-01T06:20:25.444Z,2.31
2023-02-01T06:22:52.112Z,1.98
2023-02-01T06:25:18.786Z,1.97
2023-02-01T06:27:45.418Z,2.25
2023-02-01T06:30:12.059Z,2.09
2023-02-01T06:32:38.672Z,1.91
2023-02-01T06:35:05.319Z,1.94
2023-02-01T06:37:31.945Z,2.11
2023-02-01T06:39:58.669Z,2.18
2023-02-01T06:42:25.348Z,2.25
2023-02-01T06:44:51.987Z,2.01
2023-02-01T06:47:18.555Z,1.91
2023-02-01T06:49:45.190Z,2.25
2023-02-01T06:52:11.856Z,2.24
2023-02-01T06:54:38.579Z,2.40
2023-02-01T06:57:05.207Z,2.47
2023-02-01T06:59:31.908Z,2.19
2023-02-01T07:01:58.595Z,2.02
2023-02-01T07:04:25.271Z,2.32
2023-02-01T07:06:51.930Z,2.46
2023-02-01T07:09:18.605Z,2.45
2023-02-01T07:11:45.267Z,2.52
2023-02-01T07:14:11.930Z,2.63
2023-02-01T07:16:38.633Z,2.84
2023-02-01T07:19:05.240Z,3.09
2023-02-01T07:21:32.065Z,3.09
2023-02-01T07:23:58.805Z,2.70
2023-02-01T07:26:25.455Z,2.75
2023-02-01T07:28:52.141Z,2.88
2023-02-01T07:31:18.839Z,2.67
2023-02-01T07:33:45.475Z,2.85
2023-02-01T07:36:12.142Z,2.98
2023-02-01T07:38:38.793Z,3.32
2023-02-01T07:41:05.428Z,3.31
2023-02-01T07:43:32.030Z,3.64
2023-02-01T07:45:58.734Z,3.81
2023-02-01T07:48:25.412Z,4.04
2023-02-01T07:50:52.089Z,4.28
2023-02-01T07:53:18.789Z,4.51
2023-02-01T07:55:45.495Z,4.59
2023-02-01T07:58:12.137Z,4.53
2023-02-01T08:00:38.822Z,4.59
2023-02-01T08:03:05.526Z,4.61
2023-02-01T08:05:32.111Z,4.71
2023-02-01T08:07:58.777Z,4.73
2023-02-01T08:10:25.775Z,4.76
2023-02-01T08:12:52.557Z,4.78
2023-02-01T08:15:19.201Z,4.44
2023-02-01T08:17:47.817Z,4.75
2023-02-01T08:20:14.534Z,4.68
2023-02-01T08:22:41.121Z,4.76
2023-02-01T08:25:07.856Z,4.81
2023-02-01T08:27:34.497Z,4.82
2023-02-01T08:30:01.144Z,5.02
2023-02-01T08:32:27.739Z,4.92
2023-02-01T08:34:54.419Z,4.58
2023-02-01T08:37:21.109Z,4.45
2023-02-01T08:39:47.881Z,4.43
2023-02-01T08:42:14.483Z,4.68
2023-02-01T08:44:41.089Z,4.83
2023-02-01T08:47:07.705Z,4.86
2023-02-01T08:49:34.345Z,4.86
2023-02-01T08:52:06.994Z,4.83
2023-02-01T08:54:34.053Z,5.07
2023-02-01T08:57:00.768Z,5.04
2023-02-01T08:59:28.655Z,5.08
2023-02-01T09:01:56.888Z,5.04
2023-02-01T09:04:23.687Z,5.25
2023-02-01T09:06:50.334Z,5.09
2023-02-01T09:09:16.954Z,5.24
2023-02-01T09:11:43.559Z,5.68
2023-02-01T09:14:10.270Z,5.89
2023-02-01T09:16:36.899Z,5.91
2023-02-01T09:19:24.509Z,6.25
2023-02-01T09:21:50.097Z,6.16
2023-02-01T09:24:16.737Z,6.45
2023-02-01T09:26:43.398Z,6.99
2023-02-01T09:29:10.062Z,7.31
2023-02-01T09:31:37.556Z,7.36
2023-02-01T09:34:04.232Z,7.59
2023-02-01T09:36:31.325Z,8.00
2023-02-01T09:38:58.031Z,8.30
2023-02-01T09:41:24.671Z,8.43
2023-02-01T09:43:51.267Z,8.72
2023-02-01T09:46:18.073Z,9.08
2023-02-01T09:48:44.709Z,8.64
2023-02-01T09:51:11.527Z,8.61
2023-02-01T09:53:38.189Z,9.11
2023-02-01T09:56:04.871Z,9.34
2023-02-01T09:58:31.497Z,9.34
2023-02-01T10:00:58.167Z,9.85
2023-02-01T10:03:24.829Z,10.32
2023-02-01T10:05:51.450Z,10.54
2023-02-01T10:08:18.131Z,10.92
2023-02-01T10:10:44.779Z,11.00
2023-02-01T10:13:11.490Z,11.14
2023-02-01T10:15:38.225Z,11.07
2023-02-01T10:18:04.896Z,11.14
2023-02-01T10:20:31.603Z,11.37
2023-02-01T10:23:22.769Z,11.48
2023-02-01T10:25:45.120Z,10.85
2023-02-01T10:28:11.871Z,10.96
2023-02-01T10:30:38.610Z,11.60
2023-02-01T10:33:05.294Z,12.06
2023-02-01T10:35:31.916Z,12.29
2023-02-01T10:37:58.535Z,12.63
2023-02-01T10:40:25.592Z,12.70
2023-02-01T10:42:52.527Z,12.93
2023-02-01T10:45:19.143Z,12.93
2023-02-01T10:47:45.759Z,12.64
2023-02-01T10:50:12.409Z,13.30
2023-02-01T10:52:39.063Z,13.88
2023-02-01T10:55:05.693Z,14.25
2023-02-01T10:57:32.329Z,14.70
2023-02-01T10:59:58.962Z,14.92
2023-02-01T11:02:25.684Z,14.79
2023-02-01T11:04:52.423Z,14.99
2023-02-01T11:07:19.109Z,14.91
2023-02-01T11:09:45.721Z,14.70
2023-02-01T11:12:12.411Z,14.67
2023-02-01T11:14:39.063Z,15.08
2023-02-01T11:17:05.778Z,15.44
2023-02-01T11:19:32.453Z,15.71
2023-02-01T11:21:59.069Z,15.83
2023-02-01T11:24:25.735Z,15.84
2023-02-01T11:26:52.372Z,15.26
2023-02-01T11:29:19.052Z,15.34
2023-02-01T11:31:45.807Z,15.31
2023-02-01T11:34:12.442Z,15.46
2023-02-01T11:36:39.093Z,15.91
2023-02-01T11:39:05.904Z,16.56
2023-02-01T11:41:32.539Z,16.62
2023-02-01T11:43:59.170Z,16.98
2023-02-01T11:46:25.929Z,16.43
2023-02-01T11:48:52.625Z,15.77
2023-02-01T11:51:19.571Z,15.48
2023-02-01T11:53:46.253Z,15.26
2023-02-01T11:56:12.892Z,14.97
2023-02-01T11:58:39.633Z,15.04
2023-02-01T12:01:06.299Z,15.00
2023-02-01T12:03:33.003Z,14.71
2023-02-01T12:05:59.631Z,15.31
2023-02-01T12:08:26.314Z,16.61
2023-02-01T12:10:52.968Z,16.22
2023-02-01T12:13:19.607Z,16.36
2023-02-01T12:15:46.505Z,16.37
2023-02-01T12:18:13.202Z,16.36
2023-02-01T12:20:39.904Z,16.59
2023-02-01T12:23:06.534Z,16.61
2023-02-01T12:25:33.246Z,16.90
2023-02-01T12:27:59.949Z,16.71
2023-02-01T12:30:26.687Z,16.84
2023-02-01T12:32:53.402Z,16.67
2023-02-01T12:35:20.045Z,16.53
2023-02-01T12:37:46.709Z,15.95
2023-02-01T12:40:13.368Z,15.86
2023-02-01T12:42:40.008Z,16.09
2023-02-01T12:45:06.622Z,16.28
2023-02-01T12:47:33.244Z,16.19
2023-02-01T12:49:59.851Z,15.75
2023-02-01T12:52:26.515Z,16.15
2023-02-01T12:54:53.133Z,16.18
2023-02-01T12:57:20.027Z,16.52
2023-02-01T12:59:46.704Z,16.51
2023-02-01T13:02:13.360Z,16.71
2023-02-01T13:04:40.045Z,16.95
2023-02-01T13:07:06.723Z,17.51
2023-02-01T13:09:33.332Z,17.99
2023-02-01T13:12:00.013Z,18.50
2023-02-01T13:14:26.630Z,18.43
2023-02-01T13:16:53.392Z,17.58
2023-02-01T13:19:23.347Z,17.56
2023-02-01T13:21:50.040Z,17.42
2023-02-01T13:24:16.731Z,17.17
2023-02-01T13:26:43.458Z,17.02
2023-02-01T13:29:10.181Z,17.13
2023-02-01T13:31:37.081Z,17.30
2023-02-01T13:34:03.812Z,16.60
2023-02-01T13:36:30.542Z,16.58
2023-02-01T13:38:57.165Z,15.39
2023-02-01T13:41:23.845Z,14.78
2023-02-01T13:43:50.507Z,14.77
2023-02-01T13:46:17.267Z,15.15
2023-02-01T13:48:43.926Z,15.81
2023-02-01T13:51:10.579Z,16.16
2023-02-01T13:53:37.234Z,15.83
2023-02-01T13:56:03.955Z,15.61
2023-02-01T13:58:30.621Z,15.70
2023-02-01T14:00:57.314Z,15.52
2023-02-01T14:03:23.958Z,15.47
2023-02-01T14:05:50.740Z,15.34
2023-02-01T14:08:17.426Z,15.22
2023-02-01T14:10:44.059Z,15.64
2023-02-01T14:13:10.693Z,15.58
2023-02-01T14:15:37.435Z,15.34
2023-02-01T14:18:04.130Z,15.00
2023-02-01T14:20:30.821Z,15.00
2023-02-01T14:22:57.498Z,14.86
2023-02-01T14:25:24.524Z,14.71
2023-02-01T14:27:51.341Z,14.86
2023-02-01T14:30:17.984Z,15.03
2023-02-01T14:32:44.625Z,14.96
2023-02-01T14:35:11.290Z,15.41
2023-02-01T14:37:37.949Z,14.71
2023-02-01T14:40:04.621Z,14.48
2023-02-01T14:42:31.267Z,13.94
2023-02-01T14:44:58.751Z,13.95
2023-02-01T14:47:26.619Z,14.31
2023-02-01T14:49:53.294Z,14.20
2023-02-01T14:52:19.944Z,14.03
2023-02-01T14:54:46.669Z,14.14
2023-02-01T14:57:13.333Z,14.21
2023-02-01T14:59:39.963Z,13.76
2023-02-01T15:02:06.608Z,13.46
2023-02-01T15:04:33.303Z,13.71
2023-02-01T15:06:59.992Z,13.84
2023-02-01T15:09:26.690Z,13.50
2023-02-01T15:11:53.306Z,13.55
2023-02-01T15:14:19.918Z,13.77
2023-02-01T15:16:46.601Z,13.47
2023-02-01T15:19:13.206Z,13.39
2023-02-01T15:21:39.879Z,13.29
2023-02-01T15:24:06.687Z,13.64
2023-02-01T15:26:33.430Z,13.49
2023-02-01T15:29:00.069Z,13.55
2023-02-01T15:31:26.827Z,13.71
2023-02-01T15:33:53.633Z,13.24
2023-02-01T15:36:20.407Z,13.15
2023-02-01T15:38:47.113Z,13.06
2023-02-01T15:41:13.790Z,13.01
2023-02-01T15:43:40.462Z,13.17
2023-02-01T15:46:07.133Z,13.47
2023-02-01T15:48:33.746Z,13.53
2023-02-01T15:51:00.370Z,13.33
2023-02-01T15:53:27.039Z,13.20
2023-02-01T15:55:53.676Z,13.28
2023-02-01T15:58:20.368Z,13.26
2023-02-01T16:00:47.001Z,13.25
2023-02-01T16:03:13.721Z,13.16
2023-02-01T16:05:40.495Z,13.07
2023-02-01T16:08:07.109Z,13.12
2023-02-01T16:10:33.782Z,13.10
2023-02-01T16:13:00.391Z,13.02
2023-02-01T16:15:27.051Z,12.80
2023-02-01T16:17:53.730Z,12.76
2023-02-01T16:20:20.401Z,12.89
2023-02-01T16:22:47.041Z,12.85
2023-02-01T16:25:13.673Z,12.56
2023-02-01T16:27:40.308Z,12.54
2023-02-01T16:30:06.974Z,12.44
2023-02-01T16:32:33.617Z,12.48
2023-02-01T16:35:00.254Z,12.43
2023-02-01T16:37:26.901Z,12.32
2023-02-01T16:39:53.566Z,12.05
2023-02-01T16:42:20.195Z,12.08
2023-02-01T16:44:46.880Z,11.62
2023-02-01T16:47:13.538Z,11.70
2023-02-01T16:49:40.304Z,11.87
2023-02-01T16:52:06.916Z,11.86
2023-02-01T16:54:33.615Z,11.83
2023-02-01T16:57:00.218Z,11.78
2023-02-01T16:59:26.931Z,11.66
2023-02-01T17:01:53.585Z,11.25
2023-02-01T17:04:20.231Z,11.41
2023-02-01T17:06:46.924Z,11.35
2023-02-01T17:09:13.622Z,11.33
2023-02-01T17:11:40.286Z,11.37
2023-02-01T17:14:07.093Z,11.38
2023-02-01T17:16:33.724Z,11.22
2023-02-01T17:19:00.447Z,11.12
2023-02-01T17:21:27.125Z,11.17
2023-02-01T17:23:53.789Z,11.09
2023-02-01T17:26:20.497Z,10.86
2023-02-01T17:28:47.143Z,10.82
2023-02-01T17:31:13.798Z,10.71
2023-02-01T17:33:40.494Z,10.69
2023-02-01T17:36:07.154Z,10.59
2023-02-01T17:38:33.835Z,10.51
2023-02-01T17:41:00.514Z,10.40
2023-02-01T17:43:27.141Z,10.28
2023-02-01T17:45:54.177Z,10.04
2023-02-01T17:48:20.823Z,9.93
2023-02-01T17:50:47.467Z,9.98
2023-02-01T17:53:14.215Z,9.77
2023-02-01T17:55:41.214Z,9.74
2023-02-01T17:58:07.974Z,9.57
2023-02-01T18:00:34.676Z,9.69
2023-02-01T18:03:01.640Z,9.64
2023-02-01T18:05:28.288Z,9.55
2023-02-01T18:07:55.003Z,9.43
2023-02-01T18:10:21.666Z,9.36
2023-02-01T18:12:48.285Z,9.26
2023-02-01T18:15:15.050Z,9.11
2023-02-01T18:17:41.689Z,8.92
2023-02-01T18:20:08.380Z,8.86
2023-02-01T18:22:35.057Z,8.78
2023-02-01T18:25:01.712Z,8.84
2023-02-01T18:27:28.382Z,8.80
2023-02-01T18:29:55.018Z,8.76
2023-02-01T18:32:21.686Z,8.49
2023-02-01T18:34:48.286Z,8.51
2023-02-01T18:37:14.991Z,8.03
2023-02-01T18:39:41.702Z,8.06
2023-02-01T18:42:08.388Z,7.80
2023-02-01T18:44:35.042Z,7.85
2023-02-01T18:47:01.707Z,7.85
2023-02-01T18:49:28.367Z,7.89
2023-02-01T18:51:55.060Z,7.64
2023-02-01T18:54:21.761Z,7.80
2023-02-01T18:56:48.444Z,7.77
2023-02-01T18:59:15.083Z,7.86
2023-02-01T19:01:41.727Z,7.77
2023-02-01T19:04:21.011Z,7.39
2023-02-01T19:06:52.353Z,7.45
2023-02-01T19:09:19.049Z,7.49
2023-02-01T19:11:45.734Z,7.41
2023-02-01T19:14:12.413Z,7.48
2023-02-01T19:16:39.043Z,7.30
2023-02-01T19:19:05.684Z,7.38
2023-02-01T19:21:32.336Z,7.56
2023-02-01T19:23:58.988Z,7.62
2023-02-01T19:26:25.697Z,7.54
2023-02-01T19:28:52.368Z,7.37
2023-02-01T19:31:19.120Z,7.29
2023-02-01T19:33:45.808Z,7.06
2023-02-01T19:36:12.439Z,7.03
2023-02-01T19:38:39.627Z,6.93
2023-02-01T19:41:06.307Z,6.84
2023-02-01T19:43:33.044Z,6.90
2023-02-01T19:46:03.242Z,6.96
2023-02-01T19:48:31.626Z,6.76
2023-02-01T19:50:58.446Z,6.79
2023-02-01T19:53:25.175Z,6.82
2023-02-01T19:55:51.916Z,6.49
2023-02-01T19:58:18.586Z,6.43
2023-02-01T20:00:44.463Z,6.55
2023-02-01T20:03:11.355Z,6.60
2023-02-01T20:05:38.297Z,6.75
2023-02-01T20:08:04.919Z,6.82
2023-02-01T20:10:31.705Z,6.72
2023-02-01T20:12:58.452Z,6.12
2023-02-01T20:15:25.521Z,5.98
2023-02-01T20:17:52.354Z,6.26
2023-02-01T20:20:19.000Z,6.16
2023-02-01T20:22:45.609Z,6.08
2023-02-01T20:25:12.278Z,6.08
2023-02-01T20:27:39.823Z,6.44
2023-02-01T20:30:06.482Z,6.51
2023-02-01T20:32:33.275Z,6.51
2023-02-01T20:34:59.891Z,6.45
2023-02-01T20:37:26.492Z,6.42
2023-02-01T20:39:53.158Z,6.28
2023-02-01T20:42:19.819Z,6.22
2023-02-01T20:44:46.452Z,6.04
2023-02-01T20:47:13.090Z,6.26
2023-02-01T20:49:39.769Z,6.16
2023-02-01T20:52:07.513Z,6.21
2023-02-01T20:54:34.153Z,6.34
2023-02-01T20:57:00.768Z,6.33
2023-02-01T20:59:27.405Z,6.42
2023-02-01T21:01:54.059Z,6.42
2023-02-01T21:04:20.756Z,6.45
2023-02-01T21:06:47.431Z,6.21
2023-02-01T21:09:14.057Z,6.30
2023-02-01T21:11:40.683Z,6.35
2023-02-01T21:14:07.346Z,6.43
2023-02-01T21:16:34.066Z,6.42
2023-02-01T21:19:00.729Z,5.92
2023-02-01T21:21:27.415Z,6.07
2023-02-01T21:23:54.028Z,6.28
2023-02-01T21:26:20.645Z,6.22
2023-02-01T21:28:47.290Z,6.14
2023-02-01T21:31:14.056Z,5.95
2023-02-01T21:33:40.829Z,5.93
2023-02-01T21:36:07.430Z,6.03
2023-02-01T21:38:34.104Z,6.08
2023-02-01T21:41:00.726Z,6.10
2023-02-01T21:43:27.357Z,5.96
2023-02-01T21:45:54.027Z,5.66
2023-02-01T21:48:20.755Z,5.87
2023-02-01T21:50:47.366Z,6.09
2023-02-01T21:53:14.005Z,6.09
2023-02-01T21:55:40.726Z,6.16
2023-02-01T21:58:07.369Z,5.93
2023-02-01T22:00:33.997Z,5.99
2023-02-01T22:03:00.641Z,6.21
2023-02-01T22:05:27.309Z,6.01
2023-02-01T22:07:53.998Z,6.09
2023-02-01T22:10:20.685Z,6.03
2023-02-01T22:12:47.300Z,5.98
2023-02-01T22:15:13.969Z,6.13
2023-02-01T22:17:40.616Z,5.97
2023-02-01T22:20:07.258Z,5.63
2023-02-01T22:22:33.847Z,5.78
2023-02-01T22:25:00.497Z,6.07
2023-02-01T22:27:30.498Z,5.95
2023-02-01T22:30:13.794Z,5.95
2023-02-01T22:32:40.444Z,6.17
2023-02-01T22:35:07.215Z,6.10
2023-02-01T22:37:33.874Z,5.77
2023-02-01T22:40:00.523Z,5.62
2023-02-01T22:42:27.204Z,5.94
2023-02-01T22:44:53.856Z,5.47
2023-02-01T22:47:20.483Z,5.78
2023-02-01T22:49:47.135Z,5.79
2023-02-01T22:52:13.810Z,5.48
2023-02-01T22:54:40.540Z,5.60
2023-02-01T22:57:08.005Z,5.80
2023-02-01T22:59:34.824Z,5.41
2023-02-01T23:02:01.431Z,5.82
2023-02-01T23:04:28.111Z,5.91
2023-02-01T23:06:54.850Z,6.00
2023-02-01T23:09:21.483Z,6.08
2023-02-01T23:11:48.128Z,6.08
2023-02-01T23:14:14.768Z,6.29
2023-02-01T23:16:41.436Z,6.20
2023-02-01T23:19:08.072Z,5.67
2023-02-01T23:21:34.744Z,5.89
2023-02-01T23:24:01.389Z,6.17
2023-02-01T23:26:28.056Z,5.89
2023-02-01T23:28:54.685Z,6.03
2023-02-01T23:31:21.431Z,6.04
2023-02-01T23:33:48.160Z,6.03
2023-02-01T23:36:14.790Z,6.06
2023-02-01T23:38:41.490Z,5.93
2023-02-01T23:41:08.292Z,5.51
2023-02-01T23:43:34.947Z,5.74
2023-02-01T23:46:01.613Z,5.77
2023-02-01T23:48:28.292Z,5.69
2023-02-01T23:50:54.991Z,5.97
2023-02-01T23:53:21.654Z,6.27
2023-02-01T23:55:48.326Z,6.62
2023-02-01T23:58:14.940Z,6.62
